Time;durP1;ratioP1;P1;durP2;ratioP2;P2;SDS_P1;SDS_P2;PMS_P1;PMS_P2;Temp;Humidity;BMP_temperature;BMP_pressure;BME280_temperature;BME280_humidity;BME280_pressure;Samples;Min_cycle;Max_cycle;Signal;HPM_P1;HPM_P2
2022/09/24 00:01:20;;;;;;;19.63;11.43;;;13.50;99.90;;;12.86;100.00;101092.63;5047511;23;20011;-72
2022/09/24 00:03:24;;;;;;;21.13;11.50;;;13.50;99.90;;;12.82;100.00;101087.81;5098334;23;20001;-72
2022/09/24 00:05:24;;;;;;;16.83;11.45;;;13.60;99.90;;;12.83;100.00;101084.19;5096740;23;20092;-72
2022/09/24 00:07:25;;;;;;;19.20;11.82;;;13.50;99.90;;;12.83;100.00;101082.38;5098188;23;20005;-72
2022/09/24 00:09:26;;;;;;;20.55;12.00;;;13.50;99.90;;;12.91;100.00;101085.03;5098206;23;20072;-72
2022/09/24 00:11:28;;;;;;;19.63;12.45;;;13.60;99.90;;;12.85;100.00;101076.91;5072267;23;20006;-72
2022/09/24 00:13:31;;;;;;;19.05;12.40;;;13.60;99.90;;;12.95;100.00;101081.06;5072338;23;20355;-72
2022/09/24 00:15:36;;;;;;;21.10;12.48;;;13.60;99.90;;;12.94;100.00;101084.72;5096344;23;20016;-72
2022/09/24 00:17:37;;;;;;;18.33;11.73;;;13.60;99.90;;;12.95;100.00;101074.94;5072440;23;20010;-72
2022/09/24 00:19:38;;;;;;;18.75;12.25;;;13.70;99.90;;;12.99;100.00;101074.44;5098366;23;20012;-72
2022/09/24 00:21:40;;;;;;;17.45;11.10;;;13.60;99.90;;;12.98;100.00;101078.09;5072557;23;20013;-71
2022/09/24 00:23:42;;;;;;;18.63;11.63;;;13.70;99.90;;;12.91;100.00;101068.31;5098183;23;20009;-72
2022/09/24 00:28:04;;;;;;;18.98;11.52;;;13.70;99.90;;;12.97;100.00;101081.72;5077465;23;20065;-72
2022/09/24 00:30:06;;;;;;;19.98;11.70;;;13.60;99.90;;;13.00;100.00;101073.47;5099881;23;20002;-71
2022/09/24 00:32:07;;;;;;;19.27;11.25;;;13.70;99.90;;;12.99;100.00;101085.03;5099304;23;20009;-71
2022/09/24 00:34:08;;;;;;;14.88;10.38;;;13.70;99.90;;;12.99;100.00;101076.28;5099725;23;20024;-72
2022/09/24 00:36:09;;;;;;;17.80;11.80;;;13.70;99.90;;;12.98;100.00;101078.09;5074006;23;20323;-72
2022/09/24 00:38:10;;;;;;;21.77;12.30;;;13.70;99.90;;;12.96;100.00;101080.06;5099586;23;20006;-72
2022/09/24 00:40:14;;;;;;;22.88;13.98;;;13.60;99.90;;;12.98;100.00;101083.41;5099727;23;20005;-72
2022/09/24 00:42:19;;;;;;;22.45;12.93;;;13.60;99.90;;;12.96;100.00;101082.72;5099890;23;20033;-72
2022/09/24 00:44:44;;;;;;;17.35;10.30;;;13.60;99.90;;;12.94;100.00;101081.22;5073873;23;20446;-72
2022/09/24 00:46:45;;;;;;;16.73;10.68;;;13.60;99.90;;;12.86;100.00;101075.91;5099370;23;20442;-72
2022/09/24 00:48:49;;;;;;;26.48;14.77;;;13.50;99.90;;;12.90;100.00;101074.63;5099606;23;20029;-72
2022/09/24 00:50:50;;;;;;;22.05;13.70;;;13.50;99.90;;;12.85;100.00;101066.31;5073945;23;20002;-72
2022/09/24 00:52:58;;;;;;;23.83;14.18;;;13.50;99.90;;;12.81;100.00;101076.44;5073832;23;20450;-72
2022/09/24 00:54:59;;;;;;;22.95;14.23;;;13.50;99.90;;;12.77;100.00;101080.38;5074110;23;20006;-72
2022/09/24 00:57:00;;;;;;;29.30;14.82;;;13.40;99.90;;;12.75;100.00;101083.16;5074103;23;20009;-72
2022/09/24 00:59:05;;;;;;;21.75;13.95;;;13.40;99.90;;;12.69;100.00;101080.38;5098067;23;20006;-72
2022/09/24 01:01:07;;;;;;;29.35;16.02;;;13.40;99.90;;;12.68;100.00;101086.63;5073302;23;20014;-72
2022/09/24 01:03:14;;;;;;;25.90;15.88;;;13.30;99.90;;;12.66;100.00;101083.34;5049032;23;20011;-72
2022/09/24 01:05:15;;;;;;;32.20;16.73;;;13.40;99.90;;;12.60;100.00;101081.31;5074154;23;20046;-72
2022/09/24 01:07:16;;;;;;;30.50;16.77;;;13.30;99.90;;;12.67;100.00;101075.22;5073682;23;20002;-72
2022/09/24 01:09:20;;;;;;;28.35;16.98;;;13.30;99.90;;;12.60;100.00;101082.13;5073632;23;20459;-72
2022/09/24 01:12:07;;;;;;;32.60;16.60;;;13.30;99.90;;;12.60;100.00;101084.78;5073593;23;20446;-72
2022/09/24 01:14:47;;;;;;;28.55;16.13;;;13.30;99.90;;;12.57;100.00;101076.34;5099440;23;20060;-72
2022/09/24 01:17:35;;;;;;;32.50;16.67;;;13.30;99.90;;;12.52;100.00;101070.69;5063767;23;20009;-72
2022/09/24 01:20:00;;;;;;;30.95;16.80;;;13.30;99.90;;;12.52;100.00;101066.22;5099135;23;20017;-71
2022/09/24 01:22:15;;;;;;;;;;;13.20;99.90;;;12.46;100.00;101071.34;5100025;23;20006;-72
2022/09/24 01:24:49;;;;;;;27.63;15.32;;;13.30;99.90;;;12.44;100.00;101068.88;5075417;23;19912;-72
2022/09/24 01:27:13;;;;;;;36.28;20.15;;;13.20;99.90;;;12.55;100.00;101073.03;5099236;23;20012;-72
2022/09/24 01:29:30;;;;;;;31.83;17.30;;;13.20;99.90;;;12.50;100.00;101068.22;5099449;23;20002;-72
2022/09/24 01:31:37;;;;;;;26.02;17.00;;;13.20;99.90;;;12.47;100.00;101070.34;5099177;23;20001;-72
2022/09/24 01:33:38;;;;;;;30.92;18.05;;;13.20;99.90;;;12.44;100.00;101062.75;5099452;23;20012;-72
2022/09/24 01:35:49;;;;;;;35.65;19.00;;;13.20;99.90;;;12.44;100.00;101058.28;5072941;23;20022;-71
2022/09/24 01:38:07;;;;;;;39.45;19.60;;;13.10;99.90;;;12.44;100.00;101058.28;5074014;23;20013;-72
2022/09/24 01:40:10;;;;;;;37.70;19.92;;;13.20;99.90;;;12.47;100.00;101060.59;5074244;23;20009;-71
2022/09/24 01:42:12;;;;;;;32.13;17.85;;;13.10;99.90;;;12.39;100.00;101059.75;5097600;23;20315;-71
2022/09/24 01:44:17;;;;;;;37.70;20.30;;;13.10;99.90;;;12.41;100.00;101057.75;5073100;23;20018;-72
2022/09/24 01:46:19;;;;;;;39.33;19.92;;;13.10;99.90;;;12.44;100.00;101057.44;5073289;23;20010;-72
2022/09/24 01:48:20;;;;;;;38.58;21.17;;;13.10;99.90;;;12.35;100.00;101061.88;5073295;23;20002;-71
2022/09/24 01:50:26;;;;;;;39.85;20.23;;;13.10;99.90;;;12.30;100.00;101055.41;5073241;23;20009;-72
2022/09/24 01:52:38;;;;;;;37.85;20.55;;;13.00;99.90;;;12.22;100.00;101048.25;5074161;23;20008;-73
2022/09/24 01:54:49;;;;;;;43.60;21.25;;;13.00;99.90;;;12.20;100.00;101050.25;5099196;23;20080;-72
2022/09/24 01:57:13;;;;;;;44.33;21.05;;;12.90;99.90;;;12.19;100.00;101049.41;5050277;23;20010;-71
2022/09/24 01:59:27;;;;;;;39.73;21.90;;;12.90;99.90;;;12.21;100.00;101036.84;5099099;23;20005;-71
2022/09/24 02:01:49;;;;;;;42.35;19.63;;;12.90;99.90;;;12.14;100.00;101035.84;5073843;23;20010;-72
2022/09/24 02:04:00;;;;;;;45.47;22.15;;;12.90;99.90;;;12.12;100.00;101037.00;5074134;23;20049;-72
2022/09/24 02:06:40;;;;;;;38.75;21.30;;;12.80;99.90;;;12.03;100.00;101036.13;5073611;23;20069;-72
2022/09/24 02:08:47;;;;;;;35.28;19.52;;;12.80;99.90;;;11.97;100.00;101026.19;5090490;23;20006;-71
2022/09/24 02:11:05;;;;;;;47.08;22.10;;;12.70;99.90;;;12.01;100.00;101032.81;5098946;23;20088;-71
2022/09/24 02:13:12;;;;;;;38.88;19.35;;;12.70;99.90;;;11.91;100.00;101040.03;5099180;23;20081;-72
2022/09/24 02:15:37;;;;;;;43.95;21.15;;;12.70;99.90;;;11.84;100.00;101030.22;5073408;23;20084;-72
2022/09/24 02:17:42;;;;;;;41.78;20.83;;;12.60;99.90;;;11.86;100.00;101029.09;5073849;23;20009;-71
2022/09/24 02:19:46;;;;;;;46.55;20.85;;;12.60;99.90;;;11.89;100.00;101036.69;5073609;23;20006;-72
2022/09/24 02:21:48;;;;;;;40.83;21.00;;;12.60;99.90;;;11.88;100.00;101029.78;5098879;23;20350;-71
2022/09/24 02:24:29;;;;;;;46.53;22.55;;;12.60;99.90;;;11.80;100.00;101016.50;5072980;23;20140;-71
2022/09/24 02:26:30;;;;;;;45.45;21.98;;;12.60;99.90;;;11.87;100.00;101033.41;5020711;23;20078;-72
2022/09/24 02:28:33;;;;;;;45.70;21.52;;;12.60;99.90;;;11.82;100.00;101027.75;5098828;23;20029;-72
2022/09/24 02:30:42;;;;;;;44.33;22.02;;;12.60;99.90;;;11.72;100.00;101013.81;5098380;23;20033;-71
2022/09/24 02:32:44;;;;;;;46.17;21.67;;;12.50;99.90;;;11.70;100.00;101015.81;5073600;23;20084;-71
2022/09/24 02:34:50;;;;;;;48.88;22.33;;;12.50;99.90;;;11.73;100.00;101025.22;5072819;23;20050;-72
2022/09/24 02:36:54;;;;;;;45.20;20.85;;;12.40;99.90;;;11.68;100.00;101017.72;5073120;23;20010;-72
2022/09/24 02:38:56;;;;;;;46.63;21.48;;;12.40;99.90;;;11.67;100.00;101021.38;5097319;23;20009;-71
2022/09/24 02:40:57;;;;;;;45.75;21.48;;;12.40;99.90;;;11.65;100.00;101013.59;5098802;23;20056;-72
2022/09/24 02:42:57;;;;;;;52.95;22.50;;;12.40;99.90;;;11.68;100.00;101011.63;5098726;23;20005;-71
2022/09/24 02:44:59;;;;;;;50.45;23.30;;;12.40;99.90;;;11.68;100.00;101017.72;5098643;23;20005;-71
2022/09/24 02:47:00;;;;;;;49.03;22.77;;;12.40;99.90;;;11.65;100.00;101021.50;5098331;23;20438;-71
2022/09/24 02:49:01;;;;;;;52.58;24.20;;;12.40;99.90;;;11.68;100.00;101015.06;5098146;23;20002;-71
2022/09/24 02:51:04;;;;;;;46.15;23.15;;;12.40;99.90;;;11.60;100.00;101009.75;5099103;23;20009;-72
2022/09/24 02:53:05;;;;;;;51.35;22.67;;;12.40;99.90;;;11.62;100.00;101008.59;5097054;23;20002;-71
2022/09/24 02:55:06;;;;;;;55.55;24.08;;;12.40;99.90;;;11.66;100.00;101012.59;5072755;23;20009;-71
2022/09/24 02:57:07;;;;;;;53.10;23.27;;;12.40;99.90;;;11.66;100.00;101004.69;5098631;23;20056;-72
2022/09/24 02:59:08;;;;;;;55.78;24.73;;;12.40;99.90;;;11.73;100.00;101020.78;5099037;23;20005;-71
2022/09/24 03:01:09;;;;;;;56.70;25.73;;;12.40;99.90;;;11.72;100.00;101018.28;5098380;23;20342;-72
2022/09/24 03:03:10;;;;;;;53.10;24.15;;;12.50;99.90;;;11.71;100.00;101016.63;5098522;23;20001;-71
2022/09/24 03:05:11;;;;;;;50.25;24.33;;;12.40;99.90;;;11.71;100.00;101011.34;5072740;23;20080;-71
2022/09/24 03:07:13;;;;;;;46.97;22.45;;;12.40;99.90;;;11.61;100.00;101014.06;5098685;23;20063;-71
2022/09/24 03:09:14;;;;;;;55.20;22.98;;;12.40;99.90;;;11.59;100.00;101002.81;5098524;23;20009;-71
2022/09/24 03:11:15;;;;;;;54.53;23.80;;;12.40;99.90;;;11.62;100.00;101018.34;5096951;23;20006;-71
2022/09/24 03:13:18;;;;;;;51.08;22.25;;;12.30;99.90;;;11.60;100.00;101012.41;5098486;23;20001;-72
2022/09/24 03:15:19;;;;;;;52.22;23.38;;;12.30;99.90;;;11.62;100.00;101015.69;5098229;23;20063;-71
2022/09/24 03:17:20;;;;;;;51.85;23.65;;;12.30;99.90;;;11.65;100.00;101007.47;5072604;23;20006;-71
2022/09/24 03:19:21;;;;;;;50.50;22.15;;;12.40;99.90;;;11.59;100.00;101005.44;5096989;23;20002;-71
2022/09/24 03:21:22;;;;;;;45.75;22.55;;;12.30;99.90;;;11.66;100.00;101014.41;5098416;23;20001;-71
2022/09/24 03:23:23;;;;;;;45.65;21.45;;;12.40;99.90;;;11.61;100.00;101012.25;5098629;23;20057;-71
2022/09/24 03:25:25;;;;;;;44.42;20.73;;;12.30;99.90;;;11.57;100.00;101015.34;5098691;23;20009;-72
2022/09/24 03:27:25;;;;;;;45.08;21.42;;;12.30;99.90;;;11.56;100.00;101011.03;5098605;23;20307;-71
2022/09/24 03:31:56;;;;;;;46.38;20.85;;;12.30;99.90;;;11.57;100.00;101020.63;5005406;23;20021;-72
2022/09/24 03:33:58;;;;;;;48.28;20.23;;;12.30;99.90;;;11.56;100.00;101017.16;5067860;23;20014;-72
2022/09/24 03:36:05;;;;;;;41.35;19.63;;;12.30;99.90;;;11.57;100.00;101021.47;5098365;23;20006;-72
2022/09/24 03:38:06;;;;;;;44.88;19.48;;;12.30;99.90;;;11.58;100.00;101024.94;5072356;23;20018;-71
2022/09/24 03:40:08;;;;;;;42.22;19.67;;;12.30;99.90;;;11.57;100.00;101025.91;5097131;23;20343;-71
2022/09/24 03:42:09;;;;;;;41.90;19.70;;;12.30;99.90;;;11.57;100.00;101025.91;5098430;23;20566;-71
2022/09/24 03:44:10;;;;;;;39.40;18.42;;;12.30;99.90;;;11.57;100.00;101020.63;5072696;23;20089;-71
2022/09/24 03:46:12;;;;;;;39.33;18.35;;;12.30;99.90;;;11.57;100.00;101018.00;5098113;23;20010;-71
2022/09/24 03:48:13;;;;;;;41.53;18.70;;;12.30;99.90;;;11.57;100.00;101012.72;5098268;23;20009;-71
2022/09/24 03:50:14;;;;;;;42.30;17.50;;;12.30;99.90;;;11.64;100.00;101016.41;5098469;23;20002;-71
2022/09/24 03:52:15;;;;;;;35.65;17.23;;;12.30;99.90;;;11.61;100.00;101003.50;5098345;23;20001;-71
2022/09/24 03:54:16;;;;;;;37.30;18.45;;;12.40;99.90;;;11.70;100.00;101009.69;5072547;23;20002;-71
2022/09/24 03:56:17;;;;;;;34.58;16.35;;;12.40;99.90;;;11.73;100.00;101015.50;5098316;23;20064;-72
2022/09/24 03:58:17;;;;;;;42.05;18.58;;;12.40;99.90;;;11.77;100.00;101016.00;5098530;23;20013;-71
2022/09/24 04:00:18;;;;;;;43.05;17.67;;;12.50;99.90;;;11.83;100.00;101021.47;5098868;23;20013;-71
2022/09/24 04:02:19;;;;;;;38.38;17.60;;;12.50;99.90;;;11.85;100.00;101014.22;5074121;23;20092;-71
2022/09/24 04:04:20;;;;;;;35.33;16.00;;;12.60;99.90;;;11.96;100.00;101011.31;5100184;23;20016;-71
2022/09/24 04:06:21;;;;;;;35.50;17.95;;;12.60;99.90;;;11.96;100.00;101015.75;5073925;23;20006;-71
2022/09/24 04:08:22;;;;;;;34.20;16.75;;;12.70;99.90;;;12.00;100.00;101012.66;5099949;23;20342;-71
2022/09/24 04:10:24;;;;;;;31.08;14.85;;;12.70;99.90;;;12.03;100.00;101011.50;5074239;23;20065;-71
2022/09/24 04:12:25;;;;;;;31.27;16.10;;;12.70;99.90;;;11.98;100.00;100998.75;5099866;23;20012;-71
2022/09/24 04:14:26;;;;;;;33.33;16.38;;;12.70;99.90;;;12.06;100.00;101009.38;5074236;23;20443;-71
2022/09/24 04:16:27;;;;;;;36.67;16.27;;;12.70;99.90;;;12.06;100.00;101006.72;5099879;23;20010;-71
2022/09/24 04:18:27;;;;;;;30.35;14.82;;;12.70;99.90;;;12.04;100.00;101002.56;5099852;23;20009;-71
2022/09/24 04:20:30;;;;;;;32.17;16.77;;;12.70;99.90;;;12.11;100.00;101004.44;5099945;23;20005;-71
2022/09/24 04:22:31;;;;;;;36.00;16.05;;;12.70;99.90;;;12.11;100.00;101008.88;5099898;23;20071;-71
2022/09/24 04:24:31;;;;;;;29.52;15.05;;;12.80;99.90;;;12.07;100.00;101012.81;5074126;23;20010;-72
2022/09/24 04:26:33;;;;;;;29.42;15.85;;;12.80;99.90;;;12.09;100.00;101006.41;5099701;23;20006;-71
2022/09/24 04:28:34;;;;;;;27.48;15.80;;;12.80;99.90;;;12.02;100.00;101004.56;5073730;23;20013;-72
2022/09/24 04:30:37;;;;;;;33.20;16.30;;;12.80;99.90;;;12.02;100.00;101005.38;5097830;23;20085;-71
2022/09/24 04:32:41;;;;;;;31.80;15.10;;;12.70;99.90;;;12.07;100.00;101011.00;5049614;23;20041;-71
2022/09/24 04:34:42;;;;;;;29.80;14.27;;;12.80;99.90;;;12.07;100.00;101013.66;5099483;23;20346;-72
2022/09/24 04:36:43;;;;;;;33.95;14.75;;;12.80;99.90;;;12.06;100.00;101011.19;5099412;23;20025;-71
2022/09/24 04:38:47;;;;;;;26.48;13.20;;;12.80;99.90;;;12.11;100.00;101017.66;5049258;23;20106;-71
2022/09/24 04:40:48;;;;;;;29.27;14.43;;;12.80;99.90;;;12.14;100.00;101019.16;5099794;23;20061;-72
2022/09/24 04:42:49;;;;;;;25.73;13.88;;;12.80;99.90;;;12.15;100.00;101021.66;5073780;23;20034;-72
2022/09/24 04:44:50;;;;;;;27.70;14.63;;;12.80;99.90;;;12.16;100.00;101023.28;5073645;23;20491;-71
2022/09/24 04:46:51;;;;;;;29.05;14.32;;;12.90;99.90;;;12.18;100.00;101018.66;5099208;23;20060;-71
2022/09/24 04:48:52;;;;;;;24.55;12.85;;;12.90;99.90;;;12.19;100.00;101022.97;5099594;23;20001;-71
2022/09/24 04:50:53;;;;;;;29.45;13.50;;;12.90;99.90;;;12.20;100.00;101022.00;5099623;23;20009;-71
2022/09/24 04:52:55;;;;;;;32.28;13.50;;;12.90;99.90;;;12.23;100.00;101028.78;5099493;23;20465;-71
2022/09/24 04:54:56;;;;;;;27.52;13.07;;;12.90;99.90;;;12.24;100.00;101019.88;5099543;23;20001;-71
2022/09/24 04:56:57;;;;;;;27.70;12.98;;;12.90;99.90;;;12.23;100.00;101023.47;5073718;23;20006;-71
2022/09/24 04:58:58;;;;;;;25.35;13.18;;;12.90;99.90;;;12.31;100.00;101027.97;5099407;23;20009;-72
2022/09/24 05:01:02;;;;;;;26.08;13.13;;;13.00;99.90;;;12.28;100.00;101015.88;5073584;23;20010;-71
2022/09/24 05:03:04;;;;;;;29.08;13.35;;;13.00;99.90;;;12.24;100.00;101013.75;5073748;23;20070;-71
2022/09/24 05:05:05;;;;;;;23.92;12.63;;;13.00;99.90;;;12.33;100.00;101015.41;5098476;23;20005;-72
2022/09/24 05:07:06;;;;;;;23.08;12.38;;;13.00;99.90;;;12.32;100.00;101019.03;5074000;23;20081;-71
2022/09/24 05:09:07;;;;;;;25.83;13.05;;;13.00;99.90;;;12.33;100.00;101021.53;5099454;23;20009;-71
2022/09/24 05:11:08;;;;;;;23.75;12.00;;;13.00;99.90;;;12.30;100.00;101021.88;5099233;23;20328;-71
2022/09/24 05:13:09;;;;;;;17.38;10.40;;;13.00;99.90;;;12.35;100.00;101019.56;5073453;23;20009;-71
2022/09/24 05:15:11;;;;;;;22.00;11.73;;;13.00;99.90;;;12.37;100.00;101030.81;5073105;23;20010;-71
2022/09/24 05:17:12;;;;;;;20.52;10.80;;;13.10;99.90;;;12.39;100.00;101028.84;5073387;23;20006;-71
2022/09/24 05:19:13;;;;;;;21.33;12.15;;;13.10;99.90;;;12.40;100.00;101032.28;5099520;23;20008;-71
2022/09/24 05:21:14;;;;;;;19.90;10.65;;;13.10;99.90;;;12.43;100.00;101032.81;5073464;23;20002;-72
2022/09/24 05:23:15;;;;;;;23.40;11.65;;;13.10;99.90;;;12.43;100.00;101030.16;5099324;23;20006;-71
2022/09/24 05:25:19;;;;;;;22.83;11.25;;;13.10;99.90;;;12.44;100.00;101023.06;5099127;23;20001;-71
2022/09/24 05:27:20;;;;;;;20.92;11.13;;;13.20;99.90;;;12.49;100.00;101028.69;5073545;23;20450;-71
2022/09/24 05:29:21;;;;;;;25.02;12.43;;;13.20;99.90;;;12.51;100.00;101037.31;5097978;23;20378;-71
2022/09/24 05:31:22;;;;;;;18.92;10.50;;;13.20;99.90;;;12.54;100.00;101029.88;5098959;23;20001;-71
2022/09/24 05:33:23;;;;;;;23.85;11.32;;;13.20;99.90;;;12.52;100.00;101036.28;5073835;23;20057;-72
2022/09/24 05:35:24;;;;;;;20.08;10.23;;;13.20;99.90;;;12.49;100.00;101023.38;5099169;23;20014;-71
2022/09/24 05:37:24;;;;;;;21.80;10.65;;;13.20;99.90;;;12.54;100.00;101031.69;5099197;23;20002;-71
2022/09/24 05:39:26;;;;;;;20.98;11.25;;;13.20;99.90;;;12.51;100.00;101029.38;5073249;23;20367;-71
2022/09/24 05:41:27;;;;;;;17.92;10.30;;;13.20;99.90;;;12.51;100.00;101032.00;5073190;23;20025;-71
2022/09/24 05:43:30;;;;;;;20.55;9.48;;;13.20;99.90;;;12.50;100.00;101027.69;5073150;23;20065;-71
2022/09/24 05:45:31;;;;;;;17.17;8.60;;;13.20;99.90;;;12.55;100.00;101033.31;5073465;23;20006;-71
2022/09/24 05:47:32;;;;;;;19.45;9.60;;;13.20;99.90;;;12.56;100.00;101027.88;5099221;23;20315;-72
2022/09/24 05:49:33;;;;;;;15.93;9.15;;;13.30;99.90;;;12.54;100.00;101032.53;5099311;23;20086;-72
2022/09/24 05:51:34;;;;;;;13.65;8.23;;;13.30;99.90;;;12.51;100.00;101030.19;5099290;23;20009;-71
2022/09/24 05:53:35;;;;;;;14.25;8.57;;;13.30;99.90;;;12.52;100.00;101031.84;5073343;23;20054;-72
2022/09/24 05:55:36;;;;;;;21.80;9.98;;;13.30;99.90;;;12.50;100.00;101031.19;5073261;23;20386;-71
2022/09/24 05:57:37;;;;;;;18.30;9.18;;;13.30;99.90;;;12.51;100.00;101042.59;5099068;23;20005;-72
2022/09/24 05:59:38;;;;;;;18.65;8.85;;;13.30;99.90;;;12.51;100.00;101035.50;5073239;23;20005;-72
2022/09/24 06:01:39;;;;;;;17.17;8.88;;;13.30;99.90;;;12.54;100.00;101042.28;5098245;23;20064;-71
2022/09/24 06:03:40;;;;;;;12.20;7.28;;;13.30;99.90;;;12.54;100.00;101042.28;5099013;23;20015;-71
2022/09/24 06:05:45;;;;;;;16.42;8.50;;;13.30;99.90;;;12.51;100.00;101039.94;5073102;23;20013;-71
2022/09/24 06:07:46;;;;;;;16.38;8.07;;;13.30;99.90;;;12.53;100.00;101052.03;5099033;23;20029;-72
2022/09/24 06:09:47;;;;;;;20.45;7.68;;;13.30;99.90;;;12.58;100.00;101056.81;5048707;23;20081;-72
2022/09/24 06:11:49;;;;;;;12.55;7.10;;;13.30;99.90;;;12.55;100.00;101046.56;5098978;23;20006;-71
2022/09/24 06:13:50;;;;;;;12.73;7.68;;;13.30;99.90;;;12.57;100.00;101056.00;5073274;23;20006;-72
2022/09/24 06:15:51;;;;;;;15.13;7.20;;;13.30;99.90;;;12.56;100.00;101040.28;5098627;23;20341;-72
2022/09/24 06:17:54;;;;;;;14.02;6.80;;;13.40;99.90;;;12.60;100.00;101050.38;5072512;23;20009;-72
2022/09/24 06:19:56;;;;;;;13.70;6.93;;;13.40;99.90;;;12.61;100.00;101053.84;5098875;23;20009;-71
2022/09/24 06:21:57;;;;;;;11.32;6.63;;;13.30;99.90;;;12.63;100.00;101042.09;5099028;23;20006;-72
2022/09/24 06:23:58;;;;;;;10.95;7.10;;;13.40;99.90;;;12.64;100.00;101053.53;5072813;23;20398;-71
2022/09/24 06:25:59;;;;;;;15.02;7.22;;;13.40;99.90;;;12.64;100.00;101049.06;5097335;23;20006;-71
2022/09/24 06:28:04;;;;;;;13.70;7.45;;;13.40;99.90;;;12.63;100.00;101047.41;5098795;23;20009;-72
2022/09/24 06:30:06;;;;;;;13.13;6.57;;;13.40;99.90;;;12.67;100.00;101058.50;5072633;23;20088;-71
2022/09/24 06:32:07;;;;;;;13.40;6.25;;;13.40;99.90;;;12.69;100.00;101067.94;5072530;23;20382;-72
2022/09/24 06:34:08;;;;;;;15.35;6.13;;;13.40;99.90;;;12.67;100.00;101069.09;5098683;23;20002;-72
2022/09/24 06:36:09;;;;;;;10.77;6.30;;;13.40;99.90;;;12.68;100.00;101071.59;5098869;23;20009;-72
2022/09/24 06:38:12;;;;;;;13.15;6.15;;;13.40;99.90;;;12.71;100.00;101068.63;5098846;23;20350;-72
2022/09/24 06:40:15;;;;;;;13.32;5.85;;;13.50;99.90;;;12.72;100.00;101070.25;5098594;23;20398;-72
2022/09/24 06:42:16;;;;;;;12.93;6.00;;;13.50;99.90;;;12.75;100.00;101082.38;5072944;23;20006;-72
2022/09/24 06:44:18;;;;;;;12.55;5.70;;;13.50;99.90;;;12.80;100.00;101079.22;5098942;23;20016;-72
2022/09/24 06:46:19;;;;;;;10.35;5.72;;;13.60;99.90;;;12.83;100.00;101078.91;5072138;23;20442;-72
2022/09/24 06:48:21;;;;;;;13.73;7.00;;;13.50;99.90;;;12.80;100.00;101074.75;5072392;23;20010;-72
2022/09/24 06:50:24;;;;;;;12.77;6.60;;;13.60;99.90;;;12.79;100.00;101078.38;5098651;23;20342;-72
2022/09/24 06:52:29;;;;;;;8.60;5.32;;;13.60;99.90;;;12.86;100.00;101090.00;5048422;23;20010;-71
2022/09/24 06:54:29;;;;;;;;;;;13.60;99.90;;;12.82;100.00;101093.13;5073291;23;20458;-72
2022/09/24 06:56:30;;;;;;;11.55;4.95;;;13.60;99.90;;;12.86;100.00;101089.16;5098740;23;19958;-72
2022/09/24 06:58:32;;;;;;;12.38;5.95;;;13.70;99.90;;;12.81;100.00;101076.44;5072733;23;20570;-72
2022/09/24 07:00:37;;;;;;;11.65;5.10;;;13.70;99.90;;;12.90;100.00;101086.03;5097999;23;20005;-72
2022/09/24 07:02:38;;;;;;;8.48;4.53;;;13.70;99.90;;;12.94;100.00;101087.34;5072867;23;20029;-72
2022/09/24 07:04:39;;;;;;;14.10;6.10;;;13.70;99.90;;;12.90;100.00;101078.09;5072767;23;20442;-72
2022/09/24 07:09:00;;;;;;;9.77;4.80;;;13.80;99.90;;;12.99;100.00;101090.34;5098595;23;20512;-72
2022/09/24 07:11:01;;;;;;;7.55;4.18;;;13.80;99.90;;;13.05;100.00;101091.53;5098436;23;20001;-72
2022/09/24 07:13:02;;;;;;;6.72;4.47;;;13.80;99.90;;;13.05;100.00;101094.97;5098474;23;20005;-72
2022/09/24 07:15:03;;;;;;;9.73;4.32;;;13.80;99.90;;;13.10;100.00;101094.53;5098336;23;20008;-72
2022/09/24 07:17:04;;;;;;;11.38;5.05;;;13.80;99.90;;;13.14;100.00;101094.03;5098408;23;20013;-72
2022/09/24 07:19:05;;;;;;;7.90;4.70;;;13.90;99.90;;;13.16;100.00;101099.19;5072426;23;20064;-72
2022/09/24 07:21:05;;;;;;;9.63;4.93;;;13.90;99.90;;;13.20;100.00;101109.28;5096841;23;20056;-72
2022/09/24 07:23:08;;;;;;;10.40;4.35;;;14.00;99.90;;;13.20;100.00;101098.66;5098525;23;20006;-72
2022/09/24 07:25:11;;;;;;;7.65;4.53;;;14.00;99.90;;;13.26;100.00;101103.31;5072435;23;20010;-72
2022/09/24 07:27:13;;;;;;;7.38;4.25;;;14.10;99.90;;;13.34;100.00;101101.69;5098215;23;20012;-72
2022/09/24 07:29:15;;;;;;;7.60;3.92;;;14.10;99.90;;;13.38;100.00;101103.00;5098284;23;20009;-72
2022/09/24 07:31:16;;;;;;;9.77;4.10;;;14.10;99.90;;;13.45;100.00;101102.16;5098063;23;20001;-72
2022/09/24 07:33:17;;;;;;;4.80;3.35;;;14.20;99.90;;;13.51;100.00;101101.50;5072452;23;20006;-71
2022/09/24 07:35:19;;;;;;;6.60;3.53;;;14.30;99.90;;;13.55;100.00;101102.00;5097805;23;20017;-72
2022/09/24 07:37:20;;;;;;;8.38;4.28;;;14.30;99.90;;;13.61;100.00;101098.69;5072281;23;20470;-72
2022/09/24 07:39:25;;;;;;;8.15;3.95;;;14.30;99.90;;;13.63;100.00;101094.03;5098301;23;20001;-71
2022/09/24 07:41:26;;;;;;;7.20;3.50;;;14.40;99.90;;;13.68;100.00;101102.31;5072495;23;20028;-71
2022/09/24 07:43:27;;;;;;;7.13;3.67;;;14.40;99.90;;;13.71;100.00;101086.91;5072481;23;20029;-72
2022/09/24 07:45:28;;;;;;;5.00;3.90;;;14.50;99.90;;;13.84;100.00;101097.84;5098185;23;20037;-72
2022/09/24 07:47:29;;;;;;;6.30;2.90;;;14.60;99.90;;;13.91;100.00;101081.25;5098487;23;20006;-72
2022/09/24 07:49:31;;;;;;;9.77;3.60;;;14.70;99.90;;;14.03;100.00;101091.34;5098433;23;20040;-72
2022/09/24 07:51:32;;;;;;;8.57;3.25;;;14.80;99.90;;;14.04;100.00;101087.66;5098432;23;20025;-71
2022/09/24 07:53:33;;;;;;;7.97;4.15;;;14.80;99.90;;;14.05;100.00;101086.69;5098346;23;20012;-72
2022/09/24 07:55:38;;;;;;;12.20;4.13;;;14.90;99.90;;;14.22;100.00;101100.72;5098342;23;20005;-72
2022/09/24 07:57:39;;;;;;;5.95;3.40;;;14.90;99.90;;;14.29;100.00;101099.88;5072253;23;20014;-71
2022/09/24 07:59:40;;;;;;;7.55;3.30;;;15.00;99.90;;;14.33;100.00;101095.94;5096741;23;20036;-72
2022/09/24 08:01:41;;;;;;;6.75;3.67;;;15.10;99.90;;;14.32;100.00;101107.53;5072144;23;20010;-72
2022/09/24 08:03:43;;;;;;;10.52;4.18;;;15.10;99.90;;;14.30;100.00;101103.38;5097929;23;20037;-72
2022/09/24 08:05:45;;;;;;;8.73;3.00;;;15.10;99.90;;;14.34;100.00;101108.16;5098150;23;20010;-72
2022/09/24 08:07:54;;;;;;;7.25;3.70;;;15.20;99.90;;;14.40;100.00;101120.75;5098237;23;20001;-71
2022/09/24 08:09:55;;;;;;;9.05;4.20;;;15.20;99.90;;;14.34;100.00;101134.72;5072424;23;20006;-72
2022/09/24 08:11:56;;;;;;;8.57;4.15;;;15.20;99.90;;;14.22;100.00;101121.94;5098188;23;20434;-72
2022/09/24 08:13:57;;;;;;;9.23;4.03;;;15.10;99.90;;;14.19;100.00;101128.41;5072359;23;20002;-72
2022/09/24 08:15:58;;;;;;;10.05;4.55;;;15.10;99.90;;;14.09;100.00;101138.41;5071955;23;20017;-72
2022/09/24 08:18:03;;;;;;;9.10;3.83;;;15.00;99.90;;;14.24;100.00;101136.72;5096813;23;20053;-72
2022/09/24 08:20:05;;;;;;;13.85;4.35;;;15.00;99.90;;;14.30;100.00;101141.34;5047742;23;20115;-72
2022/09/24 08:22:06;;;;;;;12.55;4.07;;;15.00;99.90;;;14.24;100.00;101141.19;5098109;23;20323;-72
2022/09/24 08:24:07;;;;;;;7.25;3.92;;;15.10;99.90;;;14.24;100.00;101139.38;5071956;23;20006;-71
2022/09/24 08:26:10;;;;;;;8.57;3.67;;;15.00;99.90;;;14.51;100.00;101142.63;5097907;23;20044;-73
2022/09/24 08:28:11;;;;;;;8.88;3.53;;;15.10;99.90;;;14.74;100.00;101143.53;5097986;23;20009;-73
2022/09/24 08:30:12;;;;;;;8.60;3.13;;;15.30;99.90;;;14.67;100.00;101142.53;5072066;23;20525;-73